createdAt,value
2019-02-11T00:01:52.482Z,5.70
2019-02-11T00:04:31.973Z,5.70
2019-02-11T00:07:09.646Z,5.70
2019-02-11T00:09:49.884Z,5.60
2019-02-11T00:12:30.159Z,5.60
2019-02-11T00:15:04.959Z,5.60
2019-02-11T00:17:46.743Z,5.60
2019-02-11T00:20:26.886Z,5.60
2019-02-11T00:23:10.775Z,5.60
2019-02-11T00:25:50.987Z,5.50
2019-02-11T00:28:35.460Z,5.50
2019-02-11T00:31:09.525Z,5.50
2019-02-11T00:33:46.991Z,5.40
2019-02-11T00:36:27.751Z,5.40
2019-02-11T00:39:04.091Z,5.30
2019-02-11T00:41:43.026Z,5.30
2019-02-11T00:44:25.364Z,5.30
2019-02-11T00:47:07.092Z,5.20
2019-02-11T00:49:48.066Z,5.10
2019-02-11T00:52:25.834Z,5.10
2019-02-11T00:55:07.912Z,5.10
2019-02-11T00:57:50.164Z,5.00
2019-02-11T01:00:30.984Z,5.00
2019-02-11T01:03:11.034Z,4.90
2019-02-11T01:05:49.299Z,4.90
2019-02-11T01:08:28.272Z,4.90
2019-02-11T01:11:09.449Z,4.90
2019-02-11T01:13:51.744Z,4.80
2019-02-11T01:16:34.600Z,4.80
2019-02-11T01:19:24.673Z,4.70
2019-02-11T01:22:07.681Z,4.70
2019-02-11T01:24:54.946Z,4.70
2019-02-11T01:27:37.475Z,4.70
2019-02-11T01:30:18.380Z,4.70
2019-02-11T01:33:00.204Z,4.60
2019-02-11T01:35:39.006Z,4.60
2019-02-11T01:38:22.178Z,4.60
2019-02-11T01:41:08.828Z,4.60
2019-02-11T01:43:48.407Z,4.50
2019-02-11T01:46:26.607Z,4.60
2019-02-11T01:49:15.519Z,4.60
2019-02-11T01:51:54.995Z,4.50
2019-02-11T01:54:40.810Z,4.50
2019-02-11T01:57:22.772Z,4.50
2019-02-11T02:00:03.520Z,4.50
2019-02-11T02:02:40.312Z,4.40
2019-02-11T02:05:23.012Z,4.40
2019-02-11T02:08:00.869Z,4.40
2019-02-11T02:10:44.014Z,4.40
2019-02-11T02:13:22.887Z,4.30
2019-02-11T02:16:03.754Z,4.30
2019-02-11T02:18:44.326Z,4.30
2019-02-11T02:21:23.818Z,4.30
2019-02-11T02:24:07.592Z,4.30
2019-02-11T02:26:47.190Z,4.30
2019-02-11T02:29:25.393Z,4.30
2019-02-11T02:32:00.801Z,4.30
2019-02-11T02:34:42.964Z,4.30
2019-02-11T02:37:20.662Z,4.20
2019-02-11T02:40:01.726Z,4.20
2019-02-11T02:42:41.991Z,4.20
2019-02-11T02:45:19.697Z,4.20
2019-02-11T02:48:04.025Z,4.10
2019-02-11T02:50:44.997Z,4.10
2019-02-11T02:53:26.671Z,4.10
2019-02-11T02:56:07.698Z,4.10
2019-02-11T02:58:47.043Z,4.10
2019-02-11T03:01:23.399Z,4.00
2019-02-11T03:04:00.897Z,4.00
2019-02-11T03:06:44.005Z,4.00
2019-02-11T03:09:27.831Z,4.00
2019-02-11T03:12:06.472Z,4.00
2019-02-11T03:14:48.249Z,4.00
2019-02-11T03:17:26.632Z,4.00
2019-02-11T03:20:06.905Z,4.00
2019-02-11T03:22:45.120Z,4.00
2019-02-11T03:25:22.780Z,4.00
2019-02-11T03:28:03.703Z,3.90
2019-02-11T03:30:46.009Z,4.00
2019-02-11T03:33:24.952Z,3.90
2019-02-11T03:36:07.337Z,3.90
2019-02-11T03:38:49.006Z,3.90
2019-02-11T03:41:26.538Z,3.90
2019-02-11T03:44:04.040Z,3.90
2019-02-11T03:46:45.682Z,3.90
2019-02-11T03:49:28.170Z,3.90
2019-02-11T03:52:05.768Z,3.90
2019-02-11T03:54:46.644Z,3.90
2019-02-11T03:57:32.242Z,4.00
2019-02-11T04:00:17.823Z,4.00
2019-02-11T04:03:00.816Z,4.00
2019-02-11T04:05:41.114Z,4.00
2019-02-11T04:08:18.653Z,3.90
2019-02-11T04:11:04.175Z,3.90
2019-02-11T04:13:45.492Z,3.90
2019-02-11T04:16:31.649Z,3.90
2019-02-11T04:19:10.986Z,4.00
2019-02-11T04:21:47.126Z,4.00
2019-02-11T04:24:26.050Z,4.00
2019-02-11T04:27:03.561Z,4.00
2019-02-11T04:29:48.107Z,4.00
2019-02-11T04:32:25.556Z,4.00
2019-02-11T04:35:06.529Z,4.00
2019-02-11T04:37:50.363Z,4.10
2019-02-11T04:40:27.969Z,4.10
2019-02-11T04:43:10.227Z,4.00
2019-02-11T04:45:55.428Z,4.00
2019-02-11T04:48:41.177Z,4.00
2019-02-11T04:51:20.308Z,4.00
2019-02-11T04:54:04.059Z,4.10
2019-02-11T04:56:45.032Z,4.10
2019-02-11T04:59:26.608Z,4.10
2019-02-11T05:02:12.598Z,4.10
2019-02-11T05:04:54.500Z,4.20
2019-02-11T05:07:33.587Z,4.20
2019-02-11T05:10:14.244Z,4.20
2019-02-11T05:12:53.133Z,4.20
2019-02-11T05:15:34.167Z,4.20
2019-02-11T05:18:16.897Z,4.30
2019-02-11T05:20:56.840Z,4.30
2019-02-11T05:23:36.683Z,4.30
2019-02-11T05:26:15.341Z,4.30
2019-02-11T05:29:01.944Z,4.30
2019-02-11T05:31:41.543Z,4.30
2019-02-11T05:34:21.180Z,4.30
2019-02-11T05:37:04.972Z,4.40
2019-02-11T05:39:45.945Z,4.40
2019-02-11T05:42:21.341Z,4.40
2019-02-11T05:45:01.649Z,4.40
2019-02-11T05:47:44.019Z,4.40
2019-02-11T05:50:24.375Z,4.30
2019-02-11T05:53:07.347Z,4.30
2019-02-11T05:55:49.177Z,4.30
2019-02-11T05:58:34.349Z,4.40
2019-02-11T06:01:18.126Z,4.30
2019-02-11T06:04:00.099Z,4.30
2019-02-11T06:06:39.451Z,4.30
2019-02-11T06:09:20.480Z,4.40
2019-02-11T06:12:04.954Z,4.40
2019-02-11T06:14:41.739Z,4.90
2019-02-11T06:17:21.383Z,4.90
2019-02-11T06:20:01.685Z,4.80
2019-02-11T06:22:42.261Z,4.60
2019-02-11T06:25:32.057Z,4.40
2019-02-11T06:28:08.866Z,4.30
2019-02-11T06:30:45.735Z,4.30
2019-02-11T06:33:24.864Z,4.30
2019-02-11T06:36:01.127Z,4.20
2019-02-11T06:38:39.558Z,4.20
2019-02-11T06:41:17.022Z,4.20
2019-02-11T06:43:56.202Z,4.30
2019-02-11T06:46:35.292Z,4.20
2019-02-11T06:49:16.981Z,4.20
2019-02-11T06:51:55.493Z,4.20
2019-02-11T06:54:32.965Z,4.20
2019-02-11T06:57:11.895Z,4.20
2019-02-11T06:59:56.880Z,4.20
2019-02-11T07:02:34.565Z,4.60
2019-02-11T07:05:20.781Z,4.80
2019-02-11T07:08:00.795Z,4.80
2019-02-11T07:10:39.667Z,4.70
2019-02-11T07:13:15.927Z,4.60
2019-02-11T07:15:56.712Z,4.50
2019-02-11T07:18:37.018Z,4.50
2019-02-11T07:21:12.558Z,4.50
2019-02-11T07:23:54.273Z,4.50
2019-02-11T07:26:31.456Z,4.50
2019-02-11T07:29:18.712Z,4.60
2019-02-11T07:31:59.956Z,4.60
2019-02-11T07:34:39.393Z,4.60
2019-02-11T07:37:19.854Z,4.60
2019-02-11T07:40:02.301Z,4.70
2019-02-11T07:42:50.348Z,4.70
2019-02-11T07:45:30.504Z,4.70
2019-02-11T07:48:08.774Z,4.80
2019-02-11T07:50:51.875Z,4.80
2019-02-11T07:53:29.376Z,4.80
2019-02-11T07:56:11.076Z,4.80
2019-02-11T07:58:52.777Z,4.80
2019-02-11T08:01:32.504Z,4.90
2019-02-11T08:04:12.675Z,4.90
2019-02-11T08:06:49.024Z,5.00
2019-02-11T08:09:30.607Z,5.00
2019-02-11T08:12:11.481Z,5.00
2019-02-11T08:14:48.405Z,5.00
2019-02-11T08:17:31.002Z,5.10
2019-02-11T08:20:13.129Z,5.10
2019-02-11T08:22:54.811Z,5.10
2019-02-11T08:25:34.141Z,5.20
2019-02-11T08:28:19.377Z,5.10
2019-02-11T08:30:57.785Z,5.20
2019-02-11T08:33:38.915Z,5.20
2019-02-11T08:36:21.164Z,5.20
2019-02-11T08:39:02.081Z,5.30
2019-02-11T08:41:39.950Z,5.30
2019-02-11T08:44:20.088Z,5.30
2019-02-11T08:47:02.085Z,5.40
2019-02-11T08:49:43.179Z,5.40
2019-02-11T08:52:24.134Z,5.50
2019-02-11T08:55:04.017Z,5.50
2019-02-11T08:57:49.219Z,5.50
2019-02-11T09:00:30.219Z,5.50
2019-02-11T09:03:09.459Z,5.60
2019-02-11T09:05:55.567Z,5.60
2019-02-11T09:08:35.295Z,5.70
2019-02-11T09:11:15.622Z,5.70
2019-02-11T09:13:59.394Z,5.80
2019-02-11T09:16:39.736Z,5.80
2019-02-11T09:19:22.795Z,5.90
2019-02-11T09:22:07.357Z,5.90
2019-02-11T09:24:39.925Z,5.80
2019-02-11T09:27:15.997Z,5.80
2019-02-11T09:29:55.299Z,5.90
2019-02-11T09:32:37.829Z,6.00
2019-02-11T09:35:18.782Z,6.20
2019-02-11T09:37:57.195Z,6.30
2019-02-11T09:40:35.545Z,6.50
2019-02-11T09:43:18.318Z,6.50
2019-02-11T09:46:03.930Z,6.60
2019-02-11T09:48:41.123Z,6.40
2019-02-11T09:51:19.435Z,6.30
2019-02-11T09:53:56.205Z,6.30
2019-02-11T09:56:35.104Z,6.20
2019-02-11T09:59:18.206Z,6.10
2019-02-11T10:01:58.535Z,6.10
2019-02-11T10:04:36.003Z,6.20
2019-02-11T10:07:16.336Z,6.20
2019-02-11T10:10:01.603Z,6.30
2019-02-11T10:12:40.425Z,6.30
2019-02-11T10:15:22.807Z,6.40
2019-02-11T10:18:05.211Z,6.50
2019-02-11T10:20:44.498Z,6.70
2019-02-11T10:23:22.474Z,7.10
2019-02-11T10:26:04.482Z,7.60
2019-02-11T10:28:42.682Z,8.00
2019-02-11T10:31:21.095Z,8.60
2019-02-11T10:34:01.043Z,9.00
2019-02-11T10:36:41.016Z,9.20
2019-02-11T10:39:23.445Z,9.20
2019-02-11T10:41:59.669Z,9.00
2019-02-11T10:44:42.482Z,8.70
2019-02-11T10:47:21.712Z,8.50
2019-02-11T10:49:58.279Z,8.20
2019-02-11T10:52:38.621Z,8.00
2019-02-11T10:55:21.720Z,7.60
2019-02-11T10:58:01.350Z,7.50
2019-02-11T11:00:41.651Z,7.50
2019-02-11T11:03:22.375Z,7.40
2019-02-11T11:05:58.899Z,7.40
2019-02-11T11:08:37.654Z,7.20
2019-02-11T11:11:19.294Z,7.20
2019-02-11T11:13:59.683Z,7.10
2019-02-11T11:16:39.668Z,7.20
2019-02-11T11:19:18.064Z,7.30
2019-02-11T11:21:59.136Z,7.40
2019-02-11T11:24:41.818Z,7.50
2019-02-11T11:27:28.877Z,7.50
2019-02-11T11:30:05.709Z,7.50
2019-02-11T11:32:45.760Z,7.50
2019-02-11T11:35:25.560Z,7.40
2019-02-11T11:38:08.661Z,7.50
2019-02-11T11:40:48.884Z,7.50
2019-02-11T11:43:25.031Z,7.50
2019-02-11T11:46:05.080Z,7.40
2019-02-11T11:48:48.835Z,7.50
2019-02-11T11:51:26.480Z,7.40
2019-02-11T11:54:06.270Z,7.20
2019-02-11T11:56:42.367Z,7.20
2019-02-11T11:59:24.740Z,7.30
2019-02-11T12:02:03.642Z,7.30
2019-02-11T12:04:46.039Z,7.30
2019-02-11T12:07:29.610Z,7.30
2019-02-11T12:10:13.470Z,7.30
2019-02-11T12:12:49.796Z,7.30
2019-02-11T12:15:33.358Z,7.40
2019-02-11T12:18:20.852Z,7.50
2019-02-11T12:21:05.107Z,7.60
2019-02-11T12:23:43.345Z,7.70
2019-02-11T12:26:25.277Z,7.70
2019-02-11T12:29:05.577Z,7.90
2019-02-11T12:31:46.158Z,8.00
2019-02-11T12:34:25.377Z,8.20
2019-02-11T12:37:09.234Z,8.20
2019-02-11T12:39:50.968Z,8.20
2019-02-11T12:42:27.084Z,8.20
2019-02-11T12:45:06.711Z,8.20
2019-02-11T12:47:49.023Z,8.30
2019-02-11T12:50:28.197Z,8.70
2019-02-11T12:53:08.259Z,9.30
2019-02-11T12:55:48.586Z,9.80
2019-02-11T12:58:27.278Z,10.40
2019-02-11T13:01:08.355Z,11.50
2019-02-11T13:03:45.959Z,12.60
2019-02-11T13:06:24.676Z,12.60
2019-02-11T13:09:08.693Z,11.90
2019-02-11T13:11:49.695Z,11.40
2019-02-11T13:14:28.596Z,10.70
2019-02-11T13:17:15.541Z,10.30
2019-02-11T13:20:06.782Z,9.70
2019-02-11T13:22:32.251Z,9.50
2019-02-11T13:25:14.736Z,9.00
2019-02-11T13:27:52.744Z,9.00
2019-02-11T13:30:32.712Z,9.00
2019-02-11T13:33:09.304Z,8.90
2019-02-11T13:35:51.004Z,8.80
2019-02-11T13:38:29.562Z,8.80
2019-02-11T13:41:10.053Z,8.80
2019-02-11T13:43:51.682Z,8.70
2019-02-11T13:46:30.774Z,8.60
2019-02-11T13:49:11.395Z,8.50
2019-02-11T13:51:50.003Z,8.30
2019-02-11T13:54:28.317Z,8.40
2019-02-11T13:57:08.506Z,8.40
2019-02-11T13:59:48.726Z,8.30
2019-02-11T14:02:30.954Z,8.30
2019-02-11T14:05:10.109Z,8.30
2019-02-11T14:07:47.070Z,8.20
2019-02-11T14:10:23.774Z,8.10
2019-02-11T14:13:02.616Z,7.90
2019-02-11T14:15:41.480Z,7.90
2019-02-11T14:18:18.981Z,7.90
2019-02-11T14:21:02.121Z,8.00
2019-02-11T14:23:42.415Z,8.00
2019-02-11T14:26:21.284Z,7.90
2019-02-11T14:29:06.256Z,8.00
2019-02-11T14:31:42.369Z,7.90
2019-02-11T14:34:21.513Z,7.80
2019-02-11T14:36:58.136Z,7.80
2019-02-11T14:39:35.819Z,7.80
2019-02-11T14:42:14.893Z,7.70
2019-02-11T14:44:53.472Z,7.70
2019-02-11T14:47:30.442Z,7.70
2019-02-11T14:50:13.364Z,7.60
2019-02-11T14:52:53.314Z,7.50
2019-02-11T14:55:32.687Z,7.50
2019-02-11T14:58:10.920Z,7.60
2019-02-11T15:00:52.246Z,7.50
2019-02-11T15:03:30.117Z,7.60
2019-02-11T15:06:10.390Z,7.50
2019-02-11T15:08:51.319Z,7.40
2019-02-11T15:11:28.893Z,7.40
2019-02-11T15:14:12.020Z,7.40
2019-02-11T15:16:49.484Z,7.30
2019-02-11T15:19:32.599Z,7.20
2019-02-11T15:22:14.294Z,7.20
2019-02-11T15:24:55.298Z,7.20
2019-02-11T15:27:32.952Z,7.10
2019-02-11T15:30:21.496Z,7.10
2019-02-11T15:33:00.989Z,7.20
2019-02-11T15:35:46.326Z,7.20
2019-02-11T15:38:24.545Z,7.10
2019-02-11T15:41:05.527Z,7.10
2019-02-11T15:43:43.546Z,7.20
2019-02-11T15:46:19.828Z,7.30
2019-02-11T15:49:00.499Z,7.20
2019-02-11T15:51:42.501Z,7.10
2019-02-11T15:54:26.331Z,7.10
2019-02-11T15:57:06.888Z,7.00
2019-02-11T15:59:45.969Z,6.90
2019-02-11T16:02:28.241Z,7.00
2019-02-11T16:05:06.582Z,6.90
2019-02-11T16:07:43.679Z,6.90
2019-02-11T16:10:24.055Z,6.90
2019-02-11T16:13:07.948Z,6.80
2019-02-11T16:15:45.207Z,6.70
2019-02-11T16:18:31.808Z,6.70
2019-02-11T16:21:09.337Z,6.50
2019-02-11T16:23:48.206Z,6.30
2019-02-11T16:26:25.844Z,6.30
2019-02-11T16:29:06.712Z,6.20
2019-02-11T16:31:46.314Z,6.20
2019-02-11T16:34:27.958Z,6.10
2019-02-11T16:37:05.515Z,6.00
2019-02-11T16:39:53.543Z,6.00
2019-02-11T16:42:31.712Z,6.00
2019-02-11T16:45:14.404Z,6.00
2019-02-11T16:47:51.502Z,6.00
2019-02-11T16:50:28.415Z,6.00
2019-02-11T16:53:05.977Z,6.00
2019-02-11T16:55:46.025Z,6.00
2019-02-11T16:58:23.716Z,5.90
2019-02-11T17:01:03.148Z,5.90
2019-02-11T17:03:42.093Z,5.90
2019-02-11T17:06:25.719Z,5.90
2019-02-11T17:09:02.131Z,6.00
2019-02-11T17:11:45.105Z,6.00
2019-02-11T17:14:22.052Z,5.90
2019-02-11T17:16:59.553Z,5.90
2019-02-11T17:19:46.127Z,6.00
2019-02-11T17:22:22.611Z,5.90
2019-02-11T17:25:05.325Z,5.80
2019-02-11T17:27:45.531Z,5.80
2019-02-11T17:30:33.603Z,5.80
2019-02-11T17:33:10.846Z,5.70
2019-02-11T17:35:49.358Z,5.80
2019-02-11T17:38:30.946Z,5.80
2019-02-11T17:41:10.629Z,5.80
2019-02-11T17:43:51.151Z,5.80
2019-02-11T17:46:50.834Z,5.70
2019-02-11T17:49:20.677Z,5.60
2019-02-11T17:51:57.934Z,5.60
2019-02-11T17:54:37.774Z,5.60
2019-02-11T17:57:15.838Z,5.50
2019-02-11T17:59:55.536Z,5.50
2019-02-11T18:02:36.967Z,5.60
2019-02-11T18:05:13.320Z,5.60
2019-02-11T18:07:48.766Z,5.60
2019-02-11T18:10:24.214Z,5.60
2019-02-11T18:13:00.269Z,5.60
2019-02-11T18:15:39.100Z,5.60
2019-02-11T18:18:18.585Z,5.60
2019-02-11T18:20:52.452Z,5.60
2019-02-11T18:23:43.155Z,5.50
2019-02-11T18:26:23.176Z,5.50
2019-02-11T18:29:01.103Z,5.50
2019-02-11T18:31:38.051Z,5.50
2019-02-11T18:34:17.044Z,5.50
2019-02-11T18:37:00.450Z,5.50
2019-02-11T18:39:41.851Z,5.50
2019-02-11T18:42:23.069Z,5.50
2019-02-11T18:45:03.151Z,5.50
2019-02-11T18:47:46.250Z,5.50
2019-02-11T18:50:30.078Z,5.50
2019-02-11T18:53:28.744Z,5.50
2019-02-11T18:56:10.563Z,5.60
2019-02-11T18:58:57.221Z,5.60
2019-02-11T19:01:42.397Z,5.50
2019-02-11T19:04:21.447Z,5.40
2019-02-11T19:06:59.578Z,5.40
2019-02-11T19:09:40.138Z,5.40
2019-02-11T19:12:19.274Z,5.30
2019-02-11T19:14:55.157Z,5.30
2019-02-11T19:17:33.849Z,5.30
2019-02-11T19:20:25.266Z,5.30
2019-02-11T19:23:09.355Z,5.20
2019-02-11T19:25:51.000Z,5.20
2019-02-11T19:28:29.372Z,5.20
2019-02-11T19:31:14.687Z,5.20
2019-02-11T19:34:03.862Z,5.10
2019-02-11T19:36:39.159Z,5.10
2019-02-11T19:39:20.963Z,5.10
2019-02-11T19:42:03.364Z,5.10
2019-02-11T19:44:41.101Z,5.00
2019-02-11T19:47:21.473Z,5.00
2019-02-11T19:49:57.294Z,5.00
2019-02-11T19:52:40.217Z,4.90
2019-02-11T19:55:22.764Z,4.90
2019-02-11T19:58:02.470Z,4.90
2019-02-11T20:00:39.661Z,4.90
2019-02-11T20:03:22.267Z,4.90
2019-02-11T20:06:00.946Z,4.80
2019-02-11T20:08:36.663Z,4.80
2019-02-11T20:11:18.736Z,4.70
2019-02-11T20:13:57.200Z,4.60
2019-02-11T20:16:32.602Z,4.60
2019-02-11T20:19:13.569Z,4.60
2019-02-11T20:21:53.822Z,4.60
2019-02-11T20:24:31.313Z,4.50
2019-02-11T20:27:18.108Z,4.50
2019-02-11T20:30:00.303Z,4.40
2019-02-11T20:32:39.979Z,4.50
2019-02-11T20:35:14.674Z,4.40
2019-02-11T20:37:59.252Z,4.40
2019-02-11T20:40:41.399Z,4.40
2019-02-11T20:43:20.484Z,4.40
2019-02-11T20:45:57.309Z,4.50
2019-02-11T20:48:37.577Z,4.40
2019-02-11T20:51:17.210Z,4.50
2019-02-11T20:53:56.690Z,4.40
2019-02-11T20:56:38.353Z,4.40
2019-02-11T20:59:18.024Z,4.30
2019-02-11T21:01:54.883Z,4.30
2019-02-11T21:04:32.385Z,4.30
2019-02-11T21:07:07.213Z,4.20
2019-02-11T21:09:43.913Z,4.10
2019-02-11T21:12:20.016Z,4.10
2019-02-11T21:15:03.819Z,4.00
2019-02-11T21:17:41.287Z,4.10
2019-02-11T21:20:24.388Z,4.00
2019-02-11T21:23:04.608Z,4.00
2019-02-11T21:25:46.418Z,3.90
2019-02-11T21:28:26.018Z,3.90
2019-02-11T21:31:05.372Z,3.80
2019-02-11T21:33:40.299Z,3.80
2019-02-11T21:36:18.494Z,3.70
2019-02-11T21:38:55.995Z,3.60
2019-02-11T21:41:32.823Z,3.50
2019-02-11T21:44:08.612Z,3.50
2019-02-11T21:46:48.051Z,3.60
2019-02-11T21:49:30.925Z,3.60
2019-02-11T21:52:16.825Z,3.60
2019-02-11T21:54:58.497Z,3.60
2019-02-11T21:57:38.168Z,3.60
2019-02-11T22:00:27.272Z,3.50
2019-02-11T22:03:05.461Z,3.30
2019-02-11T22:05:45.328Z,3.30
2019-02-11T22:08:24.109Z,3.20
2019-02-11T22:11:05.760Z,3.20
2019-02-11T22:13:44.802Z,3.20
2019-02-11T22:16:27.233Z,3.20
2019-02-11T22:19:03.681Z,3.20
2019-02-11T22:21:43.082Z,3.10
2019-02-11T22:24:25.031Z,3.10
2019-02-11T22:27:07.736Z,3.10
2019-02-11T22:29:45.851Z,3.00
2019-02-11T22:32:22.734Z,3.00
2019-02-11T22:35:05.838Z,3.00
2019-02-11T22:37:46.620Z,3.00
2019-02-11T22:40:27.103Z,3.00
2019-02-11T22:43:04.062Z,3.00
2019-02-11T22:45:45.155Z,2.90
2019-02-11T22:48:26.637Z,2.90
2019-02-11T22:51:02.710Z,2.90
2019-02-11T22:53:43.739Z,2.90
2019-02-11T22:56:27.511Z,2.80
2019-02-11T22:59:08.512Z,2.80
2019-02-11T23:01:50.934Z,2.80
2019-02-11T23:04:31.871Z,2.80
2019-02-11T23:07:09.556Z,2.70
2019-02-11T23:09:49.042Z,2.60
2019-02-11T23:12:30.157Z,2.60
2019-02-11T23:15:15.841Z,2.60
2019-02-11T23:17:57.617Z,2.50
2019-02-11T23:20:37.387Z,2.60
2019-02-11T23:23:22.037Z,2.60
2019-02-11T23:26:00.143Z,2.60
2019-02-11T23:28:38.151Z,2.60
2019-02-11T23:31:21.220Z,2.60
2019-02-11T23:34:01.731Z,2.50
2019-02-11T23:36:41.113Z,2.60
2019-02-11T23:39:18.557Z,2.50
2019-02-11T23:41:57.549Z,2.40
2019-02-11T23:44:35.723Z,2.50
2019-02-11T23:47:14.652Z,2.50
2019-02-11T23:49:54.488Z,2.50
2019-02-11T23:52:32.030Z,2.50
2019-02-11T23:55:08.526Z,2.50
2019-02-11T23:57:50.254Z,2.50
